TimeCDT,TemperatureF,Dew PointF,Humidity,Sea Level PressureIn,VisibilityMPH,Wind Direction,Wind SpeedMPH,Gust SpeedMPH,PrecipitationIn,Events,Conditions,WindDirDegrees,DateUTC
12:54 AM,51.1,39.9,66,29.86,10.0,NNE,6.9,-,N/A,,Clear,30,2013-05-22 05:54:00
1:54 AM,48.9,39.0,69,29.86,10.0,North,4.6,-,N/A,,Clear,10,2013-05-22 06:54:00
2:54 AM,46.9,39.0,74,29.86,10.0,NW,3.5,-,N/A,,Clear,320,2013-05-22 07:54:00
3:54 AM,44.1,37.9,79,29.87,10.0,NNW,5.8,-,N/A,,Clear,340,2013-05-22 08:54:00
4:54 AM,42.1,37.9,85,29.88,10.0,NNW,6.9,-,N/A,,Clear,340,2013-05-22 09:54:00
5:54 AM,43.0,39.0,86,29.88,10.0,North,6.9,-,N/A,,Clear,350,2013-05-22 10:54:00
6:54 AM,43.0,39.0,86,29.89,10.0,NNW,5.8,-,N/A,,Clear,340,2013-05-22 11:54:00
7:54 AM,50.0,42.1,74,29.90,10.0,North,5.8,-,N/A,,Clear,350,2013-05-22 12:54:00
8:54 AM,55.0,43.0,64,29.93,10.0,North,3.5,-,N/A,,Clear,350,2013-05-22 13:54:00
9:54 AM,57.9,43.0,58,29.94,10.0,Variable,3.5,-,N/A,,Clear,0,2013-05-22 14:54:00
10:54 AM,61.0,42.1,50,29.94,10.0,North,4.6,-,N/A,,Clear,10,2013-05-22 15:54:00
11:54 AM,66.0,42.1,42,29.93,10.0,North,5.8,-,N/A,,Clear,350,2013-05-22 16:54:00
12:54 PM,69.1,42.1,38,29.91,10.0,Variable,6.9,-,N/A,,Clear,0,2013-05-22 17:54:00
1:54 PM,71.1,39.9,32,29.89,10.0,Calm,Calm,-,N/A,,Clear,0,2013-05-22 18:54:00
2:54 PM,75.0,39.9,28,29.87,10.0,South,9.2,-,N/A,,Clear,180,2013-05-22 19:54:00
3:54 PM,75.9,41.0,29,29.86,10.0,Variable,4.6,-,N/A,,Clear,0,2013-05-22 20:54:00
4:54 PM,79.0,39.9,25,29.83,10.0,Variable,6.9,18.4,N/A,,Clear,0,2013-05-22 21:54:00
5:54 PM,80.1,39.0,23,29.82,10.0,Variable,3.5,-,N/A,,Clear,0,2013-05-22 22:54:00
6:54 PM,80.1,39.0,23,29.81,10.0,SE,4.6,-,N/A,,Clear,140,2013-05-22 23:54:00
7:54 PM,79.0,39.9,25,29.81,10.0,East,8.1,-,N/A,,Clear,90,2013-05-23 00:54:00
8:54 PM,72.0,42.1,34,29.83,10.0,East,9.2,-,N/A,,Clear,80,2013-05-23 01:54:00
9:54 PM,66.9,42.1,40,29.85,10.0,East,12.7,-,N/A,,Clear,80,2013-05-23 02:54:00
10:54 PM,64.0,43.0,46,29.89,10.0,East,13.8,-,N/A,,Clear,80,2013-05-23 03:54:00
11:54 PM,63.0,44.1,50,29.91,10.0,East,12.7,-,N/A,,Clear,90,2013-05-23 04:54:00